Aviation Digital Data Service (ADDS)

Output produced by METARs form (0039 UTC 20 April 2019)
found at http://www.aviationweather.gov/metar/data/
 
Forecast for: KIDA (IDAHO FALLS , ID, US)
Text: KIDA 192323Z 2000/2024 21011KT P6SM FEW090
Forecast period: 0000 to 0400 UTC 20 April 2019
Forecast type: FROM: standard forecast or significant change
Winds: from the SSW (210 degrees) at 13 MPH (11 knots; 5.7 m/s)
Visibility: 6 or more miles 10+ km)
Ceiling: at least 12,000 feet AGL
Clouds: few clouds at 9000 feet AGL
Weather: no significant weather forecast for this period
Text: FM200400 19008KT P6SM FEW090 SCT200
Forecast period: 0400 to 1900 UTC 20 April 2019
Forecast type: FROM: standard forecast or significant change
Winds: from the S (190 degrees) at 9 MPH (8 knots; 4.1 m/s)
Visibility: 6 or more miles 10+ km)
Ceiling: at least 12,000 feet AGL
Clouds: few clouds at 9000 feet AGL
scattered clouds at 20000 feet AGL
Weather: no significant weather forecast for this period
Text: FM201900 21011KT P6SM VCTS BKN070CB BKN120
Forecast period: 1900 UTC 20 April 2019 to 0000 UTC 21 April 2019
Forecast type: FROM: standard forecast or significant change
Winds: from the SSW (210 degrees) at 13 MPH (11 knots; 5.7 m/s)
Visibility: 6 or more miles 10+ km)
Ceiling: 7000 feet AGL
Clouds: broken clouds at 7000 feet AGL
broken clouds at 12000 feet AGL
Weather: VCTS  (thunderstorm in vicinity)